Time;durP1;ratioP1;P1;durP2;ratioP2;P2;SDS_P1;SDS_P2;PMS_P1;PMS_P2;Temp;Humidity;BMP_temperature;BMP_pressure;BME280_temperature;BME280_humidity;BME280_pressure;Samples;Min_cycle;Max_cycle;Signal;HPM_P1;HPM_P2
2021/03/07 00:02:22;;;;;;;1.22;1.05;;;;;;;-3.19;53.94;99098.16;1779270;81;21113;-62
2021/03/07 00:04:58;;;;;;;2.33;1.57;;;;;;;-3.18;54.85;99092.19;1779396;79;21139;-62
2021/03/07 00:07:26;;;;;;;1.70;1.30;;;;;;;-3.20;54.73;99092.24;1779125;81;21246;-62
2021/03/07 00:09:56;;;;;;;2.02;1.80;;;;;;;-3.21;53.06;99091.83;1778171;80;21096;-64
2021/03/07 00:12:25;;;;;;;1.77;1.10;;;;;;;-3.22;53.63;99086.34;1778644;79;21127;-64
2021/03/07 00:14:54;;;;;;;3.47;2.45;;;;;;;-3.24;54.30;99082.17;1778638;81;21144;-64
2021/03/07 00:17:22;;;;;;;1.60;1.27;;;;;;;-3.25;52.78;99081.76;1778597;81;21592;-64
2021/03/07 00:19:51;;;;;;;1.42;1.15;;;;;;;-3.25;53.32;99086.84;1778599;79;21254;-64
2021/03/07 00:22:31;;;;;;;0.62;0.62;;;;;;;-3.28;53.21;99090.72;1614033;88;21189;-64
2021/03/07 00:25:00;;;;;;;2.42;2.05;;;;;;;-3.31;52.88;99085.27;1679935;84;21188;-64
2021/03/07 00:27:28;;;;;;;0.55;0.55;;;;;;;-3.33;53.49;99085.72;1693874;85;21180;-64
2021/03/07 00:29:56;;;;;;;1.62;1.42;;;;;;;-3.36;54.18;99084.09;1693822;85;21529;-64
2021/03/07 00:32:25;;;;;;;2.37;1.10;;;;;;;-3.36;54.82;99081.98;1693922;85;21227;-64
2021/03/07 00:34:55;;;;;;;0.93;0.93;;;;;;;-3.38;55.51;99079.88;1694164;85;21148;-64
2021/03/07 00:37:31;;;;;;;1.15;1.10;;;;;;;-3.40;55.11;99074.85;1694855;85;21233;-63
2021/03/07 00:39:59;;;;;;;1.52;1.42;;;;;;;-3.39;54.47;99079.50;1693877;85;21184;-62
2021/03/07 00:42:27;;;;;;;1.98;1.75;;;;;;;-3.41;55.14;99074.44;1693826;85;21585;-63
2021/03/07 00:44:55;;;;;;;3.10;1.67;;;;;;;-3.40;55.59;99074.85;1693781;85;21593;-62
2021/03/07 00:47:31;;;;;;;1.53;1.13;;;;;;;-3.43;56.17;99074.08;1691790;84;21151;-62
2021/03/07 00:50:17;;;;;;;1.27;1.17;;;;;;;-3.47;55.95;99066.95;1689638;82;21231;-62
2021/03/07 00:52:57;;;;;;;0.75;0.75;;;;;;;-3.49;56.39;99072.91;1693900;85;21212;-62
2021/03/07 00:55:26;;;;;;;1.10;0.95;;;;;;;-3.51;55.36;99068.31;1693827;85;21593;-64
2021/03/07 00:58:04;;;;;;;1.10;1.05;;;;;;;-3.53;56.39;99060.70;1683461;84;21168;-62
2021/03/07 01:00:35;;;;;;;1.32;1.22;;;;;;;-3.56;56.20;99055.70;1693510;82;21152;-62
2021/03/07 01:03:10;;;;;;;1.62;1.15;;;;;;;-3.57;55.91;99055.72;1688897;85;21609;-62
2021/03/07 01:05:41;;;;;;;1.27;1.10;;;;;;;-3.63;56.12;99056.69;1693851;84;21564;-62
2021/03/07 01:08:11;;;;;;;4.53;2.65;;;;;;;-3.64;55.82;99054.16;1693808;85;21176;-62
2021/03/07 01:10:45;;;;;;;0.82;0.82;;;;;;;-3.66;55.96;99060.56;1693850;85;21160;-64
2021/03/07 01:13:17;;;;;;;1.00;0.82;;;;;;;-3.70;56.09;99051.75;1694308;85;21172;-68
2021/03/07 01:15:53;;;;;;;2.50;0.82;;;;;;;-3.68;55.12;99050.01;1694211;85;21148;-64
2021/03/07 01:18:25;;;;;;;1.87;0.75;;;;;;;-3.68;55.26;99047.05;1693846;85;21199;-63
2021/03/07 01:20:53;;;;;;;0.60;0.60;;;;;;;-3.68;56.07;99041.97;1693692;83;21603;-64
2021/03/07 01:23:23;;;;;;;2.98;1.87;;;;;;;-3.68;55.31;99049.58;1693994;85;21520;-65
2021/03/07 01:26:13;;;;;;;1.17;1.07;;;;;;;-3.68;56.04;99037.31;1688406;84;21180;-64
2021/03/07 01:28:43;;;;;;;0.33;0.33;;;;;;;-3.70;55.84;99020.86;1693774;82;21176;-62
2021/03/07 01:31:18;;;;;;;0.37;0.33;;;;;;;-3.70;55.29;99025.10;1691278;85;21151;-62
2021/03/07 01:33:46;;;;;;;0.70;0.47;;;;;;;-3.72;55.31;99027.66;1693837;85;21541;-62
2021/03/07 01:36:17;;;;;;;0.88;0.88;;;;;;;-3.73;55.33;99014.98;1693660;85;21199;-60
2021/03/07 01:38:50;;;;;;;1.12;0.88;;;;;;;-3.73;55.12;99018.36;1692972;82;21121;-61
2021/03/07 01:41:18;;;;;;;3.05;0.75;;;;;;;-3.71;55.49;99009.03;1693770;84;21616;-60
2021/03/07 01:43:48;;;;;;;0.82;0.57;;;;;;;-3.71;55.99;99003.11;1689424;85;21623;-61
2021/03/07 01:46:19;;;;;;;4.65;0.72;;;;;;;-3.71;56.03;99001.41;1692955;85;21203;-61
2021/03/07 01:48:51;;;;;;;3.08;1.05;;;;;;;-3.75;55.93;99002.34;1694102;85;21545;-61
2021/03/07 01:51:22;;;;;;;3.15;1.37;;;;;;;-3.76;55.54;99003.63;1693777;85;21168;-61
2021/03/07 01:53:51;;;;;;;1.47;0.65;;;;;;;-3.80;55.69;99007.09;1693876;85;21624;-62
2021/03/07 01:56:21;;;;;;;2.33;1.12;;;;;;;-3.86;55.55;98997.91;1694230;85;21160;-66
2021/03/07 01:58:52;;;;;;;2.05;0.78;;;;;;;-3.88;55.95;98999.62;1693888;85;21163;-60
2021/03/07 02:01:21;;;;;;;1.52;0.95;;;;;;;-3.92;55.28;98998.84;1672212;85;21176;-63
2021/03/07 02:03:56;;;;;;;1.55;0.95;;;;;;;-3.94;55.55;98998.05;1693714;85;21604;-61
2021/03/07 02:06:24;;;;;;;1.67;0.90;;;;;;;-3.93;55.90;98990.82;1693675;85;21152;-60
2021/03/07 02:08:52;;;;;;;0.55;0.55;;;;;;;-3.95;56.00;98996.38;1693561;85;21269;-60
2021/03/07 02:11:21;;;;;;;0.70;0.60;;;;;;;-3.94;55.98;98987.06;1693929;85;21156;-62
2021/03/07 02:13:50;;;;;;;0.78;0.65;;;;;;;-3.98;56.40;98986.72;1693739;85;21703;-60
2021/03/07 02:16:23;;;;;;;0.88;0.68;;;;;;;-4.02;56.25;98978.75;1693643;85;21612;-62
2021/03/07 02:18:55;;;;;;;;;;;;;;;-4.02;55.96;98982.56;1685286;84;21581;-61
2021/03/07 02:21:51;;;;;;;0.85;0.85;;;;;;;-4.04;56.12;98981.31;1693087;83;20233;-62
2021/03/07 02:24:23;;;;;;;1.65;1.10;;;;;;;-4.07;56.66;98976.30;1691557;85;21290;-63
2021/03/07 02:26:53;;;;;;;3.37;1.55;;;;;;;-4.12;56.41;98976.81;1691595;85;21164;-64
2021/03/07 02:29:30;;;;;;;1.42;0.95;;;;;;;-4.11;56.87;98973.84;1691364;85;21147;-62
2021/03/07 02:32:05;;;;;;;1.55;0.72;;;;;;;-4.14;56.81;98978.55;1691399;85;21167;-62
2021/03/07 02:35:01;;;;;;;0.70;0.70;;;;;;;-4.18;56.94;98973.13;1691546;85;21160;-64
2021/03/07 02:37:32;;;;;;;1.22;1.05;;;;;;;-4.18;57.58;98977.36;1692197;85;21159;-65
2021/03/07 02:40:02;;;;;;;1.45;1.35;;;;;;;-4.22;57.53;98970.67;1692182;85;21225;-62
2021/03/07 02:42:33;;;;;;;0.37;0.35;;;;;;;-4.27;57.54;98974.55;1691641;85;21558;-63
2021/03/07 02:45:06;;;;;;;1.55;1.15;;;;;;;-4.32;58.25;98970.02;1692387;85;21147;-63
2021/03/07 02:47:51;;;;;;;0.85;0.47;;;;;;;-4.34;58.11;98975.09;1692529;85;21283;-62
2021/03/07 02:50:30;;;;;;;0.75;0.75;;;;;;;-4.36;58.48;98976.00;1691638;85;21168;-62
2021/03/07 02:53:06;;;;;;;1.50;1.07;;;;;;;-4.36;57.79;98975.54;1691589;85;21271;-62
2021/03/07 02:56:07;;;;;;;0.65;0.53;;;;;;;-4.39;57.85;98983.20;1691300;85;21731;-61
2021/03/07 02:59:01;;;;;;;0.50;0.50;;;;;;;-4.43;58.02;98980.31;1604018;89;21204;-62
2021/03/07 03:01:43;;;;;;;2.33;1.52;;;;;;;-4.41;58.56;98982.84;1764445;79;38390;-64
2021/03/07 03:04:13;;;;;;;3.15;1.70;;;;;;;-4.34;58.05;98982.70;1753088;80;21153;-64
2021/03/07 03:06:44;;;;;;;0.70;0.70;;;;;;;-4.41;57.63;98982.84;1673416;82;21195;-64
2021/03/07 03:09:22;;;;;;;1.52;1.22;;;;;;;-4.43;57.48;98981.59;1752340;81;21577;-62
2021/03/07 03:11:55;;;;;;;0.65;0.42;;;;;;;-4.49;58.00;98979.59;1753951;82;21211;-62
2021/03/07 03:14:27;;;;;;;1.37;0.95;;;;;;;-4.49;58.27;98973.25;1753214;82;21152;-64
2021/03/07 03:16:59;;;;;;;1.40;0.82;;;;;;;-4.52;58.80;98971.63;1753555;82;21180;-61
2021/03/07 03:19:31;;;;;;;1.37;1.22;;;;;;;-4.52;58.95;98975.85;1747921;82;21192;-64
2021/03/07 03:22:00;;;;;;;1.00;1.00;;;;;;;-4.56;58.96;98967.89;1753433;82;21129;-64
2021/03/07 03:24:38;;;;;;;1.30;1.00;;;;;;;-4.62;58.55;98968.81;1726378;82;21106;-63
2021/03/07 03:27:24;;;;;;;0.85;0.75;;;;;;;-4.63;58.05;98973.47;1753429;82;21160;-63
2021/03/07 03:29:53;;;;;;;0.90;0.78;;;;;;;-4.64;58.05;98974.36;1753617;82;21513;-64
2021/03/07 03:32:21;;;;;;;0.68;0.50;;;;;;;-4.67;58.16;98977.38;1753245;82;21212;-64
2021/03/07 03:34:49;;;;;;;1.37;0.78;;;;;;;-4.69;58.01;98972.31;1753302;80;21160;-63
2021/03/07 03:37:24;;;;;;;1.10;1.10;;;;;;;-4.68;58.00;98973.16;1753469;80;21160;-64
2021/03/07 03:40:32;;;;;;;0.80;0.80;;;;;;;-4.71;58.04;98974.48;1750287;82;21140;-64
2021/03/07 03:43:10;;;;;;;6.03;2.05;;;;;;;-4.70;57.51;98970.63;1706297;83;21709;-63
2021/03/07 03:45:43;;;;;;;0.30;0.30;;;;;;;-4.68;58.41;98969.36;1706394;83;21343;-64
2021/03/07 03:48:19;;;;;;;0.30;0.30;;;;;;;-4.71;57.89;98970.25;1703390;84;21214;-63
2021/03/07 03:50:49;;;;;;;4.83;0.55;;;;;;;-4.71;58.05;98968.98;1706389;83;21234;-66
2021/03/07 03:53:21;;;;;;;1.55;1.45;;;;;;;-4.72;58.14;98970.27;1707063;83;21143;-67
2021/03/07 03:56:05;;;;;;;0.20;0.20;;;;;;;-4.74;58.47;98964.37;1706729;84;21724;-63
2021/03/07 03:58:54;;;;;;;0.33;0.30;;;;;;;-4.73;57.70;98959.72;1709095;84;21372;-64
2021/03/07 04:01:27;;;;;;;1.30;1.00;;;;;;;-4.70;57.61;98955.86;1704045;83;21222;-62
2021/03/07 04:04:15;;;;;;;3.20;1.47;;;;;;;-4.69;57.39;98949.51;1698419;83;21140;-62
2021/03/07 04:06:45;;;;;;;0.50;0.50;;;;;;;-4.62;56.93;98942.63;1706542;83;21671;-62
2021/03/07 04:09:14;;;;;;;3.58;1.10;;;;;;;-4.60;57.43;98943.45;1706511;83;21196;-63
2021/03/07 04:11:45;;;;;;;0.98;0.80;;;;;;;-4.59;57.79;98943.87;1606228;83;21350;-62
2021/03/07 04:14:18;;;;;;;0.98;0.98;;;;;;;-4.60;57.63;98944.72;1706229;83;21197;-62
2021/03/07 04:16:49;;;;;;;2.15;0.65;;;;;;;-4.58;57.21;98942.98;1705960;83;21747;-61
2021/03/07 04:19:38;;;;;;;1.05;1.00;;;;;;;-4.62;57.66;98939.67;1705793;83;21600;-62
2021/03/07 04:22:07;;;;;;;0.88;0.88;;;;;;;-4.65;57.56;98938.45;1613094;89;21625;-61
2021/03/07 04:24:35;;;;;;;2.10;1.82;;;;;;;-4.71;57.86;98939.84;1612994;89;21187;-63
2021/03/07 04:27:04;;;;;;;0.45;0.40;;;;;;;-4.69;57.79;98936.84;1613239;89;21203;-63
2021/03/07 04:29:38;;;;;;;3.22;1.20;;;;;;;-4.70;57.68;98943.19;1609476;88;21187;-69
2021/03/07 04:32:12;;;;;;;2.85;1.07;;;;;;;-4.74;58.07;98931.42;1613605;89;21235;-61
2021/03/07 04:35:01;;;;;;;1.52;1.12;;;;;;;-4.82;58.89;98932.82;1613300;88;21196;-68
2021/03/07 04:37:32;;;;;;;0.42;0.42;;;;;;;-4.85;58.92;98926.55;1613016;89;21473;-61
2021/03/07 04:40:08;;;;;;;0.98;0.68;;;;;;;-4.83;58.45;98928.64;1611104;88;21196;-61
2021/03/07 04:42:44;;;;;;;1.07;0.88;;;;;;;-4.88;59.19;98924.06;1601710;89;21224;-62
2021/03/07 04:45:15;;;;;;;0.30;0.30;;;;;;;-4.92;59.47;98925.81;1609171;88;21696;-61
2021/03/07 04:47:44;;;;;;;0.85;0.80;;;;;;;-4.91;58.99;98931.30;1613065;89;21629;-62
2021/03/07 04:50:14;;;;;;;1.65;0.88;;;;;;;-4.93;59.31;98926.67;1612915;89;21245;-61
2021/03/07 04:52:45;;;;;;;1.80;1.70;;;;;;;-4.97;58.89;98926.31;1612910;89;21223;-62
2021/03/07 04:55:15;;;;;;;0.98;0.65;;;;;;;-4.95;59.85;98926.30;1613118;89;21188;-62
2021/03/07 04:57:49;;;;;;;0.50;0.50;;;;;;;-4.95;59.71;98927.14;1613134;89;21199;-61
2021/03/07 05:00:27;;;;;;;3.05;1.42;;;;;;;-4.96;59.35;98919.13;1612904;89;21672;-63
2021/03/07 05:03:18;;;;;;;0.10;0.10;;;;;;;-4.99;58.83;98922.98;1580518;87;21644;-63
2021/03/07 05:05:48;;;;;;;1.40;1.30;;;;;;;-4.99;59.17;98920.45;1612891;89;21187;-63
2021/03/07 05:08:17;;;;;;;0.72;0.55;;;;;;;-4.99;59.81;98920.88;1613010;89;21272;-63
2021/03/07 05:10:45;;;;;;;4.70;0.62;;;;;;;-5.03;59.73;98911.22;1613633;89;21206;-64
2021/03/07 05:13:41;;;;;;;1.20;0.93;;;;;;;-5.05;59.91;98908.28;1669250;83;21143;-68
2021/03/07 05:16:20;;;;;;;0.42;0.42;;;;;;;-5.02;59.94;98910.80;1596911;89;21201;-63
2021/03/07 05:19:01;;;;;;;4.58;0.82;;;;;;;-4.95;59.63;98911.10;1823853;77;22737;-63
2021/03/07 05:21:29;;;;;;;0.88;0.70;;;;;;;-5.04;59.93;98913.34;1760334;81;21556;-63
2021/03/07 05:24:00;;;;;;;1.10;0.60;;;;;;;-4.98;60.02;98909.43;1769897;81;21123;-64
2021/03/07 05:26:29;;;;;;;0.82;0.80;;;;;;;-4.96;59.64;98908.16;1769628;81;21159;-63
2021/03/07 05:29:02;;;;;;;0.40;0.40;;;;;;;-4.90;59.34;98910.57;1768198;81;21183;-64
2021/03/07 05:31:57;;;;;;;0.20;0.20;;;;;;;-4.86;59.37;98907.97;1665600;84;21317;-62
2021/03/07 05:34:26;;;;;;;0.37;0.37;;;;;;;-4.83;58.96;98900.77;1673892;86;21131;-61
2021/03/07 05:36:59;;;;;;;1.45;1.22;;;;;;;-4.73;58.36;98907.77;1670158;84;21139;-62
2021/03/07 05:39:29;;;;;;;2.05;0.90;;;;;;;-4.66;58.41;98908.06;1674045;85;21211;-62
2021/03/07 05:42:03;;;;;;;0.75;0.68;;;;;;;-4.63;58.61;98905.50;1673808;84;21218;-62
2021/03/07 05:44:36;;;;;;;14.05;1.12;;;;;;;-4.61;58.44;98904.59;1601934;88;21199;-62
2021/03/07 05:47:05;;;;;;;0.65;0.65;;;;;;;-4.55;58.45;98904.94;1602329;89;21202;-61
2021/03/07 05:49:33;;;;;;;0.65;0.53;;;;;;;-4.50;58.85;98907.77;1602145;88;21636;-61
2021/03/07 05:52:38;;;;;;;0.55;0.53;;;;;;;-4.39;58.95;98901.23;1820162;79;22890;-62
2021/03/07 05:55:29;;;;;;;2.70;1.35;;;;;;;-4.44;59.01;98907.68;1636177;88;21184;-62
2021/03/07 05:57:59;;;;;;;0.17;0.17;;;;;;;-4.38;58.73;98900.38;1639397;87;21155;-61
2021/03/07 06:00:35;;;;;;;0.33;0.33;;;;;;;-4.30;58.62;98901.08;1639353;87;21170;-61
2021/03/07 06:03:05;;;;;;;1.65;0.95;;;;;;;-4.24;58.80;98895.06;1639521;87;21653;-61
2021/03/07 06:05:51;;;;;;;0.40;0.40;;;;;;;-4.16;58.89;98907.16;1636801;86;21254;-62
2021/03/07 06:08:20;;;;;;;0.70;0.70;;;;;;;-4.12;58.64;98903.67;1610014;88;21712;-61
2021/03/07 06:11:02;;;;;;;3.02;0.47;;;;;;;-4.01;58.05;98896.25;1636539;86;21187;-60
2021/03/07 06:13:43;;;;;;;0.75;0.25;;;;;;;-3.93;58.20;98895.67;1610133;88;21649;-63
2021/03/07 06:16:13;;;;;;;2.42;1.65;;;;;;;-3.84;57.76;98899.30;1634574;87;21235;-63
2021/03/07 06:18:44;;;;;;;4.05;1.02;;;;;;;-3.78;57.83;98898.78;1639682;87;21301;-63
2021/03/07 06:21:32;;;;;;;1.27;0.68;;;;;;;-3.69;57.46;98901.11;1639307;87;21183;-62
2021/03/07 06:24:05;;;;;;;1.77;1.32;;;;;;;-3.66;57.25;98889.64;1638518;86;21740;-62
2021/03/07 06:26:33;;;;;;;5.58;1.70;;;;;;;-3.62;57.17;98886.98;1639343;87;21187;-62
2021/03/07 06:29:12;;;;;;;0.30;0.30;;;;;;;-3.54;56.87;98889.38;1639539;87;21208;-63
2021/03/07 06:31:42;;;;;;;0.57;0.57;;;;;;;-3.43;56.82;98888.27;1615019;86;21612;-65
2021/03/07 06:34:11;;;;;;;0.98;0.90;;;;;;;-3.29;56.46;98879.48;1639793;87;21231;-62
2021/03/07 06:36:45;;;;;;;0.53;0.53;;;;;;;-3.17;56.50;98871.58;1609991;89;21251;-64
2021/03/07 06:39:24;;;;;;;0.85;0.60;;;;;;;-3.09;56.45;98874.78;1639595;87;21187;-65
2021/03/07 06:42:04;;;;;;;0.68;0.68;;;;;;;-2.95;56.07;98868.91;1594230;89;21211;-62
2021/03/07 06:44:34;;;;;;;0.62;0.62;;;;;;;-2.75;55.70;98868.42;1640231;87;21328;-65
2021/03/07 06:47:25;;;;;;;0.30;0.30;;;;;;;-2.62;55.22;98865.97;1639786;85;21177;-63
2021/03/07 06:53:00;;;;;;;0.88;0.65;;;;;;;-2.29;54.21;98859.14;1724025;82;21150;-65
2021/03/07 06:55:44;;;;;;;0.78;0.78;;;;;;;-2.13;53.59;98854.86;1724213;82;21174;-78
2021/03/07 06:58:17;;;;;;;2.62;1.10;;;;;;;-1.96;53.59;98857.78;1723357;82;21158;-63
2021/03/07 07:00:45;;;;;;;1.22;1.12;;;;;;;-1.77;53.45;98861.05;1723307;83;21153;-64
2021/03/07 07:03:17;;;;;;;0.68;0.68;;;;;;;-1.63;52.99;98852.55;1722615;82;21642;-63
2021/03/07 07:05:52;;;;;;;2.10;1.45;;;;;;;-1.45;52.61;98851.58;1722348;82;21181;-63
2021/03/07 07:08:45;;;;;;;1.42;1.32;;;;;;;-1.28;51.06;98850.20;1722466;82;21213;-63
2021/03/07 07:11:13;;;;;;;2.65;1.25;;;;;;;-1.15;50.47;98847.67;1722784;82;21170;-65
2021/03/07 07:13:48;;;;;;;1.77;1.25;;;;;;;-1.01;49.95;98844.22;1722544;82;21206;-65
2021/03/07 07:16:18;;;;;;;1.82;1.27;;;;;;;-0.87;49.20;98843.34;1722687;82;21170;-65
2021/03/07 07:18:49;;;;;;;2.12;1.72;;;;;;;-0.70;48.72;98835.94;1722618;82;21174;-65
2021/03/07 07:21:21;;;;;;;2.12;1.62;;;;;;;-0.54;48.16;98832.42;1722691;82;21601;-65
2021/03/07 07:23:53;;;;;;;2.58;1.42;;;;;;;-0.36;48.84;98825.42;1722757;82;21159;-62
2021/03/07 07:26:22;;;;;;;3.20;1.65;;;;;;;-0.15;48.28;98790.62;1722489;82;21186;-63
2021/03/07 07:28:55;;;;;;;0.68;0.68;;;;;;;0.03;47.84;98819.77;1719371;83;21627;-65
2021/03/07 07:31:40;;;;;;;1.52;1.00;;;;;;;0.19;45.31;98824.25;1722684;83;21178;-63
2021/03/07 07:34:35;;;;;;;2.30;1.10;;;;;;;0.31;46.79;98818.64;1722438;82;21618;-64
2021/03/07 07:37:21;;;;;;;;;;;;;;;0.50;46.70;98821.79;1724550;82;21606;-64
2021/03/07 07:39:53;;;;;;;2.05;1.15;;;;;;;0.68;45.91;98821.89;1721833;82;20510;-64
2021/03/07 07:42:30;;;;;;;1.80;0.90;;;;;;;0.76;45.56;98805.81;1722598;83;21158;-65
2021/03/07 07:45:18;;;;;;;1.20;0.82;;;;;;;0.76;44.59;98804.97;1722542;83;21143;-63
2021/03/07 07:47:56;;;;;;;;;;;;;;;0.84;44.25;98811.45;1657157;85;21273;-64
2021/03/07 07:50:35;;;;;;;2.98;0.95;;;;;;;0.87;43.79;98806.20;1573766;90;20212;-64
2021/03/07 07:53:17;;;;;;;3.62;1.60;;;;;;;0.84;44.05;98803.77;1573781;91;21277;-63
2021/03/07 07:56:00;;;;;;;3.27;1.42;;;;;;;1.08;45.53;98803.66;1619712;87;21256;-63
2021/03/07 07:58:42;;;;;;;2.75;1.52;;;;;;;1.27;43.77;98796.87;1635095;88;21209;-62
2021/03/07 08:01:53;;;;;;;2.02;1.35;;;;;;;1.45;43.78;98787.13;1635009;87;21162;-64
2021/03/07 08:04:33;;;;;;;1.82;1.65;;;;;;;1.55;42.48;98785.02;1635017;88;21663;-63
2021/03/07 08:07:12;;;;;;;4.10;2.15;;;;;;;1.69;42.60;98782.66;1780638;79;23141;-63
2021/03/07 08:09:47;;;;;;;2.40;1.60;;;;;;;1.51;42.70;98782.20;1753262;82;21149;-64
2021/03/07 08:12:47;;;;;;;3.02;1.92;;;;;;;1.73;42.44;98774.78;1725394;82;21180;-63
2021/03/07 08:15:33;;;;;;;2.30;1.30;;;;;;;1.69;41.83;98774.98;1753239;80;21236;-63
2021/03/07 08:18:05;;;;;;;1.80;1.40;;;;;;;1.92;41.61;98768.38;1753305;82;21152;-63
2021/03/07 08:20:45;;;;;;;4.45;1.77;;;;;;;2.12;42.06;98768.30;1753493;81;21160;-63
2021/03/07 08:23:21;;;;;;;5.70;1.60;;;;;;;2.13;40.83;98761.45;1753424;82;21211;-63
2021/03/07 08:25:57;;;;;;;3.35;1.92;;;;;;;2.26;40.68;98761.24;1723915;82;21185;-63
2021/03/07 08:28:38;;;;;;;2.33;1.37;;;;;;;2.51;42.17;98755.35;1747858;82;21169;-63
2021/03/07 08:31:33;;;;;;;3.10;1.87;;;;;;;2.75;42.26;98752.89;1661293;85;21589;-63
2021/03/07 08:34:23;;;;;;;2.17;1.40;;;;;;;3.05;38.99;98749.25;1780197;79;23039;-63
2021/03/07 08:36:55;;;;;;;3.70;2.37;;;;;;;3.00;37.74;98747.80;1753210;82;21125;-68
2021/03/07 08:39:23;;;;;;;4.12;1.82;;;;;;;2.76;36.61;98749.39;1753384;82;21192;-62
2021/03/07 08:41:55;;;;;;;2.20;1.40;;;;;;;2.90;37.45;98735.07;1753297;82;21167;-64
2021/03/07 08:44:43;;;;;;;4.92;2.77;;;;;;;3.17;37.61;98731.95;1753412;82;21152;-61
2021/03/07 08:47:57;;;;;;;1.77;1.10;;;;;;;3.35;36.34;98728.43;1729435;82;21144;-62
2021/03/07 08:50:27;;;;;;;1.45;1.17;;;;;;;3.55;35.66;98726.56;1726606;82;21155;-61
2021/03/07 08:53:00;;;;;;;1.00;0.95;;;;;;;3.67;35.32;98723.34;1753379;82;21148;-62
2021/03/07 08:55:28;;;;;;;1.95;1.30;;;;;;;3.81;35.77;98720.41;1753333;82;21192;-62
2021/03/07 08:58:02;;;;;;;2.30;1.50;;;;;;;3.73;34.10;98711.48;1753529;82;21152;-63
2021/03/07 09:00:54;;;;;;;1.82;1.40;;;;;;;4.09;35.70;98717.17;1694060;85;21175;-67
2021/03/07 09:03:37;;;;;;;1.82;0.90;;;;;;;4.21;33.59;98704.94;1819787;79;22934;-65
2021/03/07 09:06:13;;;;;;;2.37;1.15;;;;;;;4.49;33.43;98713.23;1793015;80;21348;-67
2021/03/07 09:08:41;;;;;;;1.57;1.20;;;;;;;4.76;31.42;98710.36;1793253;80;21155;-64
2021/03/07 09:11:10;;;;;;;1.95;1.07;;;;;;;5.21;30.85;98699.59;1792790;80;21156;-62
2021/03/07 09:13:51;;;;;;;4.20;1.32;;;;;;;5.61;30.22;98700.11;1793050;80;21305;-62
2021/03/07 09:16:22;;;;;;;3.02;1.10;;;;;;;6.11;33.57;98694.88;1793052;80;21160;-64
2021/03/07 09:18:51;;;;;;;2.40;1.30;;;;;;;6.68;29.40;98683.40;1792900;80;21164;-63
2021/03/07 09:21:38;;;;;;;3.05;1.50;;;;;;;7.34;33.91;98680.26;1754675;80;21644;-62
2021/03/07 09:24:10;;;;;;;1.95;1.25;;;;;;;7.96;31.78;98663.77;1792916;80;21182;-64
2021/03/07 09:26:42;;;;;;;1.85;1.00;;;;;;;8.54;32.82;98660.88;1792904;80;21140;-64
2021/03/07 09:29:11;;;;;;;1.72;1.10;;;;;;;8.87;31.17;98658.36;1792748;80;21338;-62
2021/03/07 09:31:58;;;;;;;1.72;1.10;;;;;;;8.88;25.76;98647.06;1698562;84;21181;-64
2021/03/07 09:34:33;;;;;;;1.90;1.00;;;;;;;9.25;26.77;98645.11;1698728;84;21801;-64
2021/03/07 09:37:02;;;;;;;1.90;1.10;;;;;;;9.87;27.72;98641.50;1698760;84;21236;-64
2021/03/07 09:40:12;;;;;;;1.50;1.02;;;;;;;9.52;23.62;98633.90;1846555;77;23309;-63
2021/03/07 09:42:42;;;;;;;1.85;0.88;;;;;;;10.55;27.51;98635.12;1815840;79;21321;-65
2021/03/07 09:47:59;;;;;;;2.22;1.02;;;;;;;10.88;22.53;98625.02;1716719;82;21218;-63
2021/03/07 09:50:49;;;;;;;2.17;1.12;;;;;;;11.26;23.47;98611.38;1723992;83;21595;-64
2021/03/07 09:53:18;;;;;;;2.85;1.15;;;;;;;11.32;22.00;98605.66;1790611;80;21184;-65
2021/03/07 09:55:51;;;;;;;2.65;1.42;;;;;;;11.42;22.06;98610.41;1755180;81;21245;-65
2021/03/07 09:58:38;;;;;;;5.33;1.40;;;;;;;10.81;21.52;98607.00;1759070;80;21155;-65
2021/03/07 10:01:08;;;;;;;3.27;1.07;;;;;;;11.44;21.71;98604.58;1754187;81;21667;-64
2021/03/07 10:03:46;;;;;;;1.95;1.10;;;;;;;11.31;21.89;98597.03;1766300;81;21139;-64
2021/03/07 10:06:30;;;;;;;2.30;1.15;;;;;;;11.92;23.12;98594.78;1732323;83;21219;-64
2021/03/07 10:09:09;;;;;;;2.40;1.02;;;;;;;12.25;19.30;98599.61;1766404;80;21158;-64
2021/03/07 10:11:37;;;;;;;1.25;1.10;;;;;;;11.53;19.59;98582.16;1734490;83;21548;-63
2021/03/07 10:14:10;;;;;;;1.80;1.20;;;;;;;12.12;21.05;98587.34;1759963;81;21185;-64
2021/03/07 10:16:59;;;;;;;1.60;1.00;;;;;;;12.52;19.80;98579.36;1768403;80;21150;-64
2021/03/07 10:20:00;;;;;;;1.35;1.00;;;;;;;12.70;21.00;98573.28;1790484;79;21122;-64
2021/03/07 10:22:39;;;;;;;2.20;1.30;;;;;;;13.28;19.09;98570.48;1787461;80;21611;-63
2021/03/07 10:25:29;;;;;;;2.35;1.12;;;;;;;13.76;22.19;98574.13;1796811;79;21153;-65
2021/03/07 10:28:06;;;;;;;1.37;1.10;;;;;;;13.89;22.00;98573.27;1804365;79;21587;-64
2021/03/07 10:30:40;;;;;;;1.52;1.00;;;;;;;14.20;17.61;98565.90;1804337;79;21142;-66
2021/03/07 10:33:27;;;;;;;1.47;1.00;;;;;;;14.34;17.59;98558.82;1788045;80;21155;-63
2021/03/07 10:36:19;;;;;;;1.82;1.00;;;;;;;14.96;20.55;98551.72;1743469;78;21173;-65
2021/03/07 10:39:10;;;;;;;1.90;1.27;;;;;;;14.97;16.82;98554.20;1803482;79;21150;-66
2021/03/07 10:42:06;;;;;;;2.58;1.30;;;;;;;15.61;18.08;98548.41;1804667;79;21190;-64
2021/03/07 10:44:42;;;;;;;2.85;1.25;;;;;;;15.42;19.30;98542.10;1777968;79;21178;-63
2021/03/07 10:47:18;;;;;;;2.00;1.25;;;;;;;16.02;17.98;98534.07;1788003;80;21597;-63
2021/03/07 10:49:51;;;;;;;1.92;1.05;;;;;;;15.88;16.66;98533.38;1804080;79;21130;-65
2021/03/07 10:52:21;;;;;;;2.05;1.30;;;;;;;16.43;17.92;98533.06;1741027;82;21181;-66
2021/03/07 10:55:15;;;;;;;2.35;1.30;;;;;;;16.13;16.57;98520.16;1850322;76;22952;-66
2021/03/07 10:57:44;;;;;;;1.82;1.20;;;;;;;16.71;17.68;98511.74;1827403;77;21136;-65
2021/03/07 11:00:18;;;;;;;1.92;1.17;;;;;;;16.24;15.36;98505.89;1827772;77;21287;-65
2021/03/07 11:02:47;;;;;;;1.75;1.20;;;;;;;16.28;15.30;98503.27;1827521;77;21268;-64
2021/03/07 11:05:18;;;;;;;2.70;1.65;;;;;;;17.14;15.76;98498.15;1827748;77;21409;-66
2021/03/07 11:07:53;;;;;;;1.55;1.10;;;;;;;17.32;14.82;98486.89;1827728;77;21184;-63
2021/03/07 11:10:23;;;;;;;2.37;1.40;;;;;;;17.90;15.29;98481.61;1827660;77;21298;-65
2021/03/07 11:12:52;;;;;;;2.27;1.27;;;;;;;17.96;14.07;98473.04;1823285;77;21105;-64
2021/03/07 11:15:20;;;;;;;2.70;1.40;;;;;;;17.06;15.12;98466.70;1827530;77;21669;-66
2021/03/07 11:17:51;;;;;;;2.75;1.65;;;;;;;17.94;14.97;98460.06;1827528;77;21558;-64
2021/03/07 11:20:20;;;;;;;2.47;1.40;;;;;;;18.02;13.94;98456.05;1827377;77;21342;-63
2021/03/07 11:23:01;;;;;;;2.75;1.70;;;;;;;17.80;14.46;98451.66;1822366;77;21145;-64
2021/03/07 11:25:29;;;;;;;3.72;1.77;;;;;;;18.90;14.13;98436.92;1827404;77;21212;-64
2021/03/07 11:27:57;;;;;;;2.52;1.72;;;;;;;19.25;13.10;98430.04;1827344;77;21157;-64
2021/03/07 11:33:49;;;;;;;2.45;1.60;;;;;;;20.35;12.86;98416.73;1663656;85;21530;-65
2021/03/07 11:36:17;;;;;;;1.70;1.22;;;;;;;19.68;12.59;98403.24;1663774;86;21187;-65
2021/03/07 11:38:45;;;;;;;2.72;1.40;;;;;;;20.14;12.08;98408.37;1663620;85;21557;-65
2021/03/07 11:41:13;;;;;;;2.27;1.67;;;;;;;20.08;13.94;98401.21;1663887;85;21235;-66
2021/03/07 11:43:45;;;;;;;1.90;1.30;;;;;;;20.29;12.75;98389.33;1661883;86;21258;-65
2021/03/07 11:46:15;;;;;;;2.02;1.65;;;;;;;19.83;12.22;98385.03;1660598;85;21625;-65
2021/03/07 11:48:45;;;;;;;3.02;1.77;;;;;;;16.79;13.72;98372.71;1661596;85;21208;-65
2021/03/07 11:51:26;;;;;;;2.70;1.27;;;;;;;16.58;14.06;98379.36;1663642;85;21601;-63
2021/03/07 11:53:54;;;;;;;1.87;1.32;;;;;;;18.84;15.22;98363.47;1663785;86;21172;-65
2021/03/07 11:56:22;;;;;;;2.52;1.32;;;;;;;19.69;13.59;98357.42;1663793;85;21612;-65
2021/03/07 11:58:50;;;;;;;1.95;1.60;;;;;;;20.16;12.00;98356.74;1663804;86;21203;-65
2021/03/07 12:01:18;;;;;;;2.67;1.50;;;;;;;20.46;12.20;98346.31;1663960;86;21148;-64
2021/03/07 12:03:47;;;;;;;1.90;1.37;;;;;;;20.59;12.65;98341.08;1663613;86;21251;-65
2021/03/07 12:06:15;;;;;;;2.85;1.77;;;;;;;20.01;11.47;98334.95;1663314;85;21633;-64
2021/03/07 12:08:43;;;;;;;1.82;1.60;;;;;;;19.26;12.10;98331.09;1663169;85;21200;-63
2021/03/07 12:11:15;;;;;;;2.98;1.90;;;;;;;19.95;12.43;98329.97;1663371;86;21207;-65
2021/03/07 12:13:48;;;;;;;2.90;1.62;;;;;;;18.84;13.01;98324.00;1660718;86;21208;-65
2021/03/07 12:16:17;;;;;;;2.05;1.47;;;;;;;20.28;15.62;98309.05;1663188;86;21686;-66
2021/03/07 12:18:45;;;;;;;2.02;1.82;;;;;;;19.37;13.02;98310.05;1663422;86;21180;-65
2021/03/07 12:21:18;;;;;;;3.35;1.30;;;;;;;18.93;13.51;98301.02;1661898;86;21255;-65
2021/03/07 12:23:57;;;;;;;3.30;2.20;;;;;;;20.58;12.49;98305.14;1663262;85;21263;-65
2021/03/07 12:26:26;;;;;;;5.80;2.80;;;;;;;21.64;11.41;98294.24;1663225;86;21179;-66